sensor_id;sensor_type;location;lat;lon;timestamp;temperature;humidity
36710;DHT22;22694;51.040;3.684;2023-02-13T00:01:32;12.90;85.90
36710;DHT22;22694;51.040;3.684;2023-02-13T00:03:58;12.90;85.90
36710;DHT22;22694;51.040;3.684;2023-02-13T00:06:24;12.90;85.80
36710;DHT22;22694;51.040;3.684;2023-02-13T00:08:50;12.90;85.90
36710;DHT22;22694;51.040;3.684;2023-02-13T00:11:16;12.90;85.90
36710;DHT22;22694;51.040;3.684;2023-02-13T00:13:41;12.90;85.90
36710;DHT22;22694;51.040;3.684;2023-02-13T00:16:08;12.90;85.90
36710;DHT22;22694;51.040;3.684;2023-02-13T00:18:35;12.90;85.90
36710;DHT22;22694;51.040;3.684;2023-02-13T00:21:07;12.90;85.80
36710;DHT22;22694;51.040;3.684;2023-02-13T00:23:33;12.90;85.80
36710;DHT22;22694;51.040;3.684;2023-02-13T00:26:04;12.90;85.80
36710;DHT22;22694;51.040;3.684;2023-02-13T00:28:30;12.90;86.10
36710;DHT22;22694;51.040;3.684;2023-02-13T00:31:11;12.90;86.20
36710;DHT22;22694;51.040;3.684;2023-02-13T00:33:38;12.90;86.20
36710;DHT22;22694;51.040;3.684;2023-02-13T00:36:22;12.90;86.20
36710;DHT22;22694;51.040;3.684;2023-02-13T00:38:49;12.90;86.20
36710;DHT22;22694;51.040;3.684;2023-02-13T00:41:15;12.90;86.20
36710;DHT22;22694;51.040;3.684;2023-02-13T00:43:42;12.80;86.10
36710;DHT22;22694;51.040;3.684;2023-02-13T00:46:08;12.80;86.20
36710;DHT22;22694;51.040;3.684;2023-02-13T00:48:34;12.80;86.20
36710;DHT22;22694;51.040;3.684;2023-02-13T00:51:01;12.80;86.10
36710;DHT22;22694;51.040;3.684;2023-02-13T00:53:26;12.80;85.90
36710;DHT22;22694;51.040;3.684;2023-02-13T00:55:52;12.80;86.00
36710;DHT22;22694;51.040;3.684;2023-02-13T00:58:19;12.80;86.70
36710;DHT22;22694;51.040;3.684;2023-02-13T01:00:45;12.80;86.80
36710;DHT22;22694;51.040;3.684;2023-02-13T01:03:12;12.90;87.50
36710;DHT22;22694;51.040;3.684;2023-02-13T01:05:38;12.90;87.50
36710;DHT22;22694;51.040;3.684;2023-02-13T01:08:04;12.90;86.90
36710;DHT22;22694;51.040;3.684;2023-02-13T01:10:30;12.90;86.70
36710;DHT22;22694;51.040;3.684;2023-02-13T01:12:55;12.90;86.50
36710;DHT22;22694;51.040;3.684;2023-02-13T01:15:21;12.80;86.40
36710;DHT22;22694;51.040;3.684;2023-02-13T01:17:47;12.80;86.20
36710;DHT22;22694;51.040;3.684;2023-02-13T01:20:13;12.80;86.30
36710;DHT22;22694;51.040;3.684;2023-02-13T01:22:39;12.80;86.20
36710;DHT22;22694;51.040;3.684;2023-02-13T01:25:05;12.80;86.10
36710;DHT22;22694;51.040;3.684;2023-02-13T01:27:31;12.80;86.20
36710;DHT22;22694;51.040;3.684;2023-02-13T01:29:58;12.80;86.20
36710;DHT22;22694;51.040;3.684;2023-02-13T01:32:24;12.80;86.20
36710;DHT22;22694;51.040;3.684;2023-02-13T01:34:50;12.80;86.20
36710;DHT22;22694;51.040;3.684;2023-02-13T01:37:16;12.80;86.50
36710;DHT22;22694;51.040;3.684;2023-02-13T01:39:42;12.80;86.40
36710;DHT22;22694;51.040;3.684;2023-02-13T01:42:30;12.80;86.50
36710;DHT22;22694;51.040;3.684;2023-02-13T01:44:58;12.70;86.30
36710;DHT22;22694;51.040;3.684;2023-02-13T01:47:43;12.80;86.50
36710;DHT22;22694;51.040;3.684;2023-02-13T01:50:12;12.70;86.30
36710;DHT22;22694;51.040;3.684;2023-02-13T01:52:54;12.70;86.30
36710;DHT22;22694;51.040;3.684;2023-02-13T01:55:23;12.70;86.40
36710;DHT22;22694;51.040;3.684;2023-02-13T01:57:57;12.70;86.40
36710;DHT22;22694;51.040;3.684;2023-02-13T02:00:24;12.70;86.40
36710;DHT22;22694;51.040;3.684;2023-02-13T02:02:54;12.70;86.40
36710;DHT22;22694;51.040;3.684;2023-02-13T02:05:21;12.70;86.40
36710;DHT22;22694;51.040;3.684;2023-02-13T02:07:49;12.60;86.30
36710;DHT22;22694;51.040;3.684;2023-02-13T02:10:17;12.60;86.30
36710;DHT22;22694;51.040;3.684;2023-02-13T02:15:16;12.60;86.40
36710;DHT22;22694;51.040;3.684;2023-02-13T02:17:42;12.60;86.40
36710;DHT22;22694;51.040;3.684;2023-02-13T02:22:58;12.50;86.40
36710;DHT22;22694;51.040;3.684;2023-02-13T02:36:51;12.40;86.40
36710;DHT22;22694;51.040;3.684;2023-02-13T02:42:27;12.40;86.40
36710;DHT22;22694;51.040;3.684;2023-02-13T02:47:30;12.40;86.40
36710;DHT22;22694;51.040;3.684;2023-02-13T02:58:27;12.30;86.40
36710;DHT22;22694;51.040;3.684;2023-02-13T03:01:17;12.30;86.40
36710;DHT22;22694;51.040;3.684;2023-02-13T03:04:02;12.20;86.40
36710;DHT22;22694;51.040;3.684;2023-02-13T03:06:59;12.20;86.40
36710;DHT22;22694;51.040;3.684;2023-02-13T03:09:38;12.20;86.40
36710;DHT22;22694;51.040;3.684;2023-02-13T03:12:24;12.20;86.40
36710;DHT22;22694;51.040;3.684;2023-02-13T03:15:12;12.10;86.40
36710;DHT22;22694;51.040;3.684;2023-02-13T03:17:38;12.10;86.40
36710;DHT22;22694;51.040;3.684;2023-02-13T03:23:16;12.10;86.30
36710;DHT22;22694;51.040;3.684;2023-02-13T03:26:06;12.10;86.40
36710;DHT22;22694;51.040;3.684;2023-02-13T03:28:56;12.00;86.20
36710;DHT22;22694;51.040;3.684;2023-02-13T03:31:54;12.00;86.20
36710;DHT22;22694;51.040;3.684;2023-02-13T03:34:28;12.00;86.20
36710;DHT22;22694;51.040;3.684;2023-02-13T03:37:17;12.00;86.20
36710;DHT22;22694;51.040;3.684;2023-02-13T03:40:14;11.90;86.20
36710;DHT22;22694;51.040;3.684;2023-02-13T03:42:50;11.90;86.20
36710;DHT22;22694;51.040;3.684;2023-02-13T03:45:24;11.90;86.20
36710;DHT22;22694;51.040;3.684;2023-02-13T03:48:10;11.90;86.20
36710;DHT22;22694;51.040;3.684;2023-02-13T03:51:35;11.90;86.70
36710;DHT22;22694;51.040;3.684;2023-02-13T03:54:06;11.80;86.20
36710;DHT22;22694;51.040;3.684;2023-02-13T03:56:39;11.80;86.10
36710;DHT22;22694;51.040;3.684;2023-02-13T03:59:29;11.80;86.10
36710;DHT22;22694;51.040;3.684;2023-02-13T04:02:12;11.70;86.00
36710;DHT22;22694;51.040;3.684;2023-02-13T04:04:45;11.70;86.10
36710;DHT22;22694;51.040;3.684;2023-02-13T04:07:15;11.70;86.00
36710;DHT22;22694;51.040;3.684;2023-02-13T04:09:55;11.70;85.90
36710;DHT22;22694;51.040;3.684;2023-02-13T04:15:35;11.70;85.90
36710;DHT22;22694;51.040;3.684;2023-02-13T04:18:09;11.60;85.70
36710;DHT22;22694;51.040;3.684;2023-02-13T04:20:36;11.60;85.80
36710;DHT22;22694;51.040;3.684;2023-02-13T04:23:09;11.60;85.80
36710;DHT22;22694;51.040;3.684;2023-02-13T04:25:38;11.60;85.70
36710;DHT22;22694;51.040;3.684;2023-02-13T04:28:04;11.60;85.80
36710;DHT22;22694;51.040;3.684;2023-02-13T04:30:30;11.60;85.60
36710;DHT22;22694;51.040;3.684;2023-02-13T04:32:55;11.50;85.60
36710;DHT22;22694;51.040;3.684;2023-02-13T04:35:21;11.50;85.60
36710;DHT22;22694;51.040;3.684;2023-02-13T04:37:47;11.50;85.50
36710;DHT22;22694;51.040;3.684;2023-02-13T04:40:12;11.50;85.50
36710;DHT22;22694;51.040;3.684;2023-02-13T04:42:38;11.50;85.40
36710;DHT22;22694;51.040;3.684;2023-02-13T04:45:04;11.50;85.60
36710;DHT22;22694;51.040;3.684;2023-02-13T04:47:30;11.40;85.40
36710;DHT22;22694;51.040;3.684;2023-02-13T04:49:55;11.40;85.50
36710;DHT22;22694;51.040;3.684;2023-02-13T04:52:21;11.40;85.40
36710;DHT22;22694;51.040;3.684;2023-02-13T04:54:47;11.40;85.40
36710;DHT22;22694;51.040;3.684;2023-02-13T04:57:12;11.40;85.40
36710;DHT22;22694;51.040;3.684;2023-02-13T04:59:38;11.40;85.50
36710;DHT22;22694;51.040;3.684;2023-02-13T05:02:04;11.40;85.40
36710;DHT22;22694;51.040;3.684;2023-02-13T05:04:29;11.30;85.30
36710;DHT22;22694;51.040;3.684;2023-02-13T05:06:55;11.30;85.30
36710;DHT22;22694;51.040;3.684;2023-02-13T05:09:20;11.30;85.30
36710;DHT22;22694;51.040;3.684;2023-02-13T05:11:46;11.30;85.20
36710;DHT22;22694;51.040;3.684;2023-02-13T05:14:12;11.20;85.20
36710;DHT22;22694;51.040;3.684;2023-02-13T05:16:37;11.20;85.20
36710;DHT22;22694;51.040;3.684;2023-02-13T05:19:03;11.40;90.40
36710;DHT22;22694;51.040;3.684;2023-02-13T05:21:28;11.60;90.80
36710;DHT22;22694;51.040;3.684;2023-02-13T05:24:12;11.70;89.40
36710;DHT22;22694;51.040;3.684;2023-02-13T05:26:38;11.70;86.10
36710;DHT22;22694;51.040;3.684;2023-02-13T05:29:04;11.70;85.00
36710;DHT22;22694;51.040;3.684;2023-02-13T05:31:46;11.60;84.40
36710;DHT22;22694;51.040;3.684;2023-02-13T05:34:12;11.60;84.10
36710;DHT22;22694;51.040;3.684;2023-02-13T05:36:38;11.70;85.60
36710;DHT22;22694;51.040;3.684;2023-02-13T05:39:04;11.60;83.80
36710;DHT22;22694;51.040;3.684;2023-02-13T05:41:30;11.60;82.50
36710;DHT22;22694;51.040;3.684;2023-02-13T05:43:56;11.50;82.70
36710;DHT22;22694;51.040;3.684;2023-02-13T05:46:22;11.40;83.00
36710;DHT22;22694;51.040;3.684;2023-02-13T05:48:47;11.30;83.20
36710;DHT22;22694;51.040;3.684;2023-02-13T05:51:13;11.30;83.40
36710;DHT22;22694;51.040;3.684;2023-02-13T05:53:39;11.20;83.40
36710;DHT22;22694;51.040;3.684;2023-02-13T05:56:05;11.20;83.50
36710;DHT22;22694;51.040;3.684;2023-02-13T05:58:32;11.20;83.60
36710;DHT22;22694;51.040;3.684;2023-02-13T06:00:58;11.10;83.60
36710;DHT22;22694;51.040;3.684;2023-02-13T06:03:25;11.10;83.70
36710;DHT22;22694;51.040;3.684;2023-02-13T06:05:52;11.10;83.70
36710;DHT22;22694;51.040;3.684;2023-02-13T06:08:18;11.00;83.60
36710;DHT22;22694;51.040;3.684;2023-02-13T06:10:45;11.00;83.60
36710;DHT22;22694;51.040;3.684;2023-02-13T06:13:11;11.00;83.70
36710;DHT22;22694;51.040;3.684;2023-02-13T06:15:37;10.90;83.70
36710;DHT22;22694;51.040;3.684;2023-02-13T06:18:02;10.90;83.70
36710;DHT22;22694;51.040;3.684;2023-02-13T06:20:28;10.90;83.70
36710;DHT22;22694;51.040;3.684;2023-02-13T06:22:53;10.90;83.80
36710;DHT22;22694;51.040;3.684;2023-02-13T06:25:19;10.90;83.90
36710;DHT22;22694;51.040;3.684;2023-02-13T06:27:46;10.80;83.70
36710;DHT22;22694;51.040;3.684;2023-02-13T06:30:13;10.80;83.90
36710;DHT22;22694;51.040;3.684;2023-02-13T06:32:38;10.80;83.80
36710;DHT22;22694;51.040;3.684;2023-02-13T06:35:05;10.80;83.90
36710;DHT22;22694;51.040;3.684;2023-02-13T06:37:30;10.80;83.90
36710;DHT22;22694;51.040;3.684;2023-02-13T06:39:56;10.70;83.90
36710;DHT22;22694;51.040;3.684;2023-02-13T06:42:22;10.70;83.80
36710;DHT22;22694;51.040;3.684;2023-02-13T06:44:47;10.80;84.00
36710;DHT22;22694;51.040;3.684;2023-02-13T06:47:13;10.70;83.90
36710;DHT22;22694;51.040;3.684;2023-02-13T06:49:39;10.70;84.00
36710;DHT22;22694;51.040;3.684;2023-02-13T06:52:04;10.70;83.90
36710;DHT22;22694;51.040;3.684;2023-02-13T06:54:30;10.70;83.90
36710;DHT22;22694;51.040;3.684;2023-02-13T06:56:55;10.60;83.90
36710;DHT22;22694;51.040;3.684;2023-02-13T06:59:21;10.70;84.60
36710;DHT22;22694;51.040;3.684;2023-02-13T07:01:47;10.70;84.50
36710;DHT22;22694;51.040;3.684;2023-02-13T07:04:12;10.80;85.90
36710;DHT22;22694;51.040;3.684;2023-02-13T07:06:38;10.80;85.40
36710;DHT22;22694;51.040;3.684;2023-02-13T07:09:04;11.10;91.90
36710;DHT22;22694;51.040;3.684;2023-02-13T07:11:30;11.20;89.90
36710;DHT22;22694;51.040;3.684;2023-02-13T07:13:56;11.20;85.20
36710;DHT22;22694;51.040;3.684;2023-02-13T07:16:22;11.00;83.40
36710;DHT22;22694;51.040;3.684;2023-02-13T07:18:47;11.00;83.40
36710;DHT22;22694;51.040;3.684;2023-02-13T07:21:13;10.90;83.40
36710;DHT22;22694;51.040;3.684;2023-02-13T07:23:39;10.80;83.60
36710;DHT22;22694;51.040;3.684;2023-02-13T07:26:05;10.70;83.70
36710;DHT22;22694;51.040;3.684;2023-02-13T07:28:30;10.80;83.80
36710;DHT22;22694;51.040;3.684;2023-02-13T07:30:56;10.60;83.80
36710;DHT22;22694;51.040;3.684;2023-02-13T07:33:22;10.60;83.90
36710;DHT22;22694;51.040;3.684;2023-02-13T07:35:49;10.60;84.00
36710;DHT22;22694;51.040;3.684;2023-02-13T07:38:16;10.60;83.90
36710;DHT22;22694;51.040;3.684;2023-02-13T07:40:42;10.50;84.00
36710;DHT22;22694;51.040;3.684;2023-02-13T07:43:08;10.50;84.00
36710;DHT22;22694;51.040;3.684;2023-02-13T07:45:34;10.50;84.10
36710;DHT22;22694;51.040;3.684;2023-02-13T07:47:59;10.50;84.00
36710;DHT22;22694;51.040;3.684;2023-02-13T07:50:26;10.40;84.00
36710;DHT22;22694;51.040;3.684;2023-02-13T07:52:53;10.40;84.00
36710;DHT22;22694;51.040;3.684;2023-02-13T07:55:18;10.50;84.10
36710;DHT22;22694;51.040;3.684;2023-02-13T07:57:44;10.40;84.00
36710;DHT22;22694;51.040;3.684;2023-02-13T08:00:10;10.30;84.00
36710;DHT22;22694;51.040;3.684;2023-02-13T08:02:36;10.30;83.90
36710;DHT22;22694;51.040;3.684;2023-02-13T08:05:01;10.30;83.90
36710;DHT22;22694;51.040;3.684;2023-02-13T08:07:27;10.30;84.50
36710;DHT22;22694;51.040;3.684;2023-02-13T08:09:53;10.30;83.90
36710;DHT22;22694;51.040;3.684;2023-02-13T08:12:37;10.30;83.90
36710;DHT22;22694;51.040;3.684;2023-02-13T08:15:03;10.30;83.90
36710;DHT22;22694;51.040;3.684;2023-02-13T08:17:29;10.30;83.90
36710;DHT22;22694;51.040;3.684;2023-02-13T08:19:55;10.30;83.90
36710;DHT22;22694;51.040;3.684;2023-02-13T08:22:21;10.30;83.90
36710;DHT22;22694;51.040;3.684;2023-02-13T08:24:46;10.30;83.80
36710;DHT22;22694;51.040;3.684;2023-02-13T08:27:13;10.30;83.80
36710;DHT22;22694;51.040;3.684;2023-02-13T08:29:39;10.30;83.80
36710;DHT22;22694;51.040;3.684;2023-02-13T08:32:04;10.30;83.90
36710;DHT22;22694;51.040;3.684;2023-02-13T08:34:30;10.20;83.90
36710;DHT22;22694;51.040;3.684;2023-02-13T08:36:56;10.20;83.90
36710;DHT22;22694;51.040;3.684;2023-02-13T08:39:21;10.30;84.10
36710;DHT22;22694;51.040;3.684;2023-02-13T08:41:47;10.30;84.10
36710;DHT22;22694;51.040;3.684;2023-02-13T08:44:13;10.60;84.30
36710;DHT22;22694;51.040;3.684;2023-02-13T08:46:38;10.30;84.30
36710;DHT22;22694;51.040;3.684;2023-02-13T08:49:04;10.30;84.20
36710;DHT22;22694;51.040;3.684;2023-02-13T08:51:29;10.30;84.20
36710;DHT22;22694;51.040;3.684;2023-02-13T08:53:56;10.30;84.30
36710;DHT22;22694;51.040;3.684;2023-02-13T08:56:21;10.30;85.60
36710;DHT22;22694;51.040;3.684;2023-02-13T08:58:48;10.40;84.30
36710;DHT22;22694;51.040;3.684;2023-02-13T09:01:14;10.40;84.30
36710;DHT22;22694;51.040;3.684;2023-02-13T09:03:40;10.40;84.50
36710;DHT22;22694;51.040;3.684;2023-02-13T09:06:06;10.40;84.80
36710;DHT22;22694;51.040;3.684;2023-02-13T09:08:34;10.40;84.90
36710;DHT22;22694;51.040;3.684;2023-02-13T09:11:02;10.40;84.90
36710;DHT22;22694;51.040;3.684;2023-02-13T09:13:29;10.40;85.00
36710;DHT22;22694;51.040;3.684;2023-02-13T09:15:58;10.40;84.90
36710;DHT22;22694;51.040;3.684;2023-02-13T09:18:25;10.40;84.90
36710;DHT22;22694;51.040;3.684;2023-02-13T09:20:59;10.50;85.00
36710;DHT22;22694;51.040;3.684;2023-02-13T09:23:26;10.40;85.00
36710;DHT22;22694;51.040;3.684;2023-02-13T09:25:57;10.80;85.20
36710;DHT22;22694;51.040;3.684;2023-02-13T09:28:22;10.50;85.00
36710;DHT22;22694;51.040;3.684;2023-02-13T09:30:48;10.50;85.00
36710;DHT22;22694;51.040;3.684;2023-02-13T09:33:14;10.50;85.00
36710;DHT22;22694;51.040;3.684;2023-02-13T09:35:39;10.60;85.20
36710;DHT22;22694;51.040;3.684;2023-02-13T09:38:06;10.60;85.20
36710;DHT22;22694;51.040;3.684;2023-02-13T09:40:43;10.60;85.30
36710;DHT22;22694;51.040;3.684;2023-02-13T09:43:21;10.70;85.50
36710;DHT22;22694;51.040;3.684;2023-02-13T09:45:50;10.70;85.60
36710;DHT22;22694;51.040;3.684;2023-02-13T09:48:26;10.70;85.70
36710;DHT22;22694;51.040;3.684;2023-02-13T09:50:53;10.80;86.10
36710;DHT22;22694;51.040;3.684;2023-02-13T09:53:21;10.80;86.20
36710;DHT22;22694;51.040;3.684;2023-02-13T09:58:47;11.20;89.30
36710;DHT22;22694;51.040;3.684;2023-02-13T10:01:38;11.30;87.80
36710;DHT22;22694;51.040;3.684;2023-02-13T10:06:59;11.50;86.30
36710;DHT22;22694;51.040;3.684;2023-02-13T10:12:19;11.60;91.10
36710;DHT22;22694;51.040;3.684;2023-02-13T10:14:51;11.80;90.20
36710;DHT22;22694;51.040;3.684;2023-02-13T10:17:40;11.90;88.40
36710;DHT22;22694;51.040;3.684;2023-02-13T10:20:27;11.90;87.20
36710;DHT22;22694;51.040;3.684;2023-02-13T10:23:17;12.00;86.60
36710;DHT22;22694;51.040;3.684;2023-02-13T10:28:17;12.10;86.00
36710;DHT22;22694;51.040;3.684;2023-02-13T10:30:48;12.20;85.80
36710;DHT22;22694;51.040;3.684;2023-02-13T10:33:30;12.20;85.60
36710;DHT22;22694;51.040;3.684;2023-02-13T10:38:41;12.40;85.40
36710;DHT22;22694;51.040;3.684;2023-02-13T10:41:24;12.60;93.10
36710;DHT22;22694;51.040;3.684;2023-02-13T10:46:33;13.10;88.30
36710;DHT22;22694;51.040;3.684;2023-02-13T11:00:02;13.20;84.80
36710;DHT22;22694;51.040;3.684;2023-02-13T11:02:31;13.30;84.60
36710;DHT22;22694;51.040;3.684;2023-02-13T11:07:44;13.40;84.20
36710;DHT22;22694;51.040;3.684;2023-02-13T11:10:20;13.40;84.10
36710;DHT22;22694;51.040;3.684;2023-02-13T11:12:46;13.50;84.00
36710;DHT22;22694;51.040;3.684;2023-02-13T11:15:25;13.50;83.90
36710;DHT22;22694;51.040;3.684;2023-02-13T11:17:54;13.60;83.80
36710;DHT22;22694;51.040;3.684;2023-02-13T11:20:39;13.70;83.70
36710;DHT22;22694;51.040;3.684;2023-02-13T11:25:40;13.80;89.90
36710;DHT22;22694;51.040;3.684;2023-02-13T11:28:09;14.00;90.00
36710;DHT22;22694;51.040;3.684;2023-02-13T11:30:38;14.20;92.10
36710;DHT22;22694;51.040;3.684;2023-02-13T11:33:23;14.40;91.10
36710;DHT22;22694;51.040;3.684;2023-02-13T11:36:04;14.50;89.00
36710;DHT22;22694;51.040;3.684;2023-02-13T11:38:30;14.50;86.40
36710;DHT22;22694;51.040;3.684;2023-02-13T11:41:09;14.50;85.20
36710;DHT22;22694;51.040;3.684;2023-02-13T11:43:52;14.40;84.50
36710;DHT22;22694;51.040;3.684;2023-02-13T11:49:04;14.50;83.90
36710;DHT22;22694;51.040;3.684;2023-02-13T11:54:03;14.50;83.50
36710;DHT22;22694;51.040;3.684;2023-02-13T11:56:49;14.50;83.50
36710;DHT22;22694;51.040;3.684;2023-02-13T11:59:16;14.50;83.30
36710;DHT22;22694;51.040;3.684;2023-02-13T12:01:42;14.60;83.30
36710;DHT22;22694;51.040;3.684;2023-02-13T12:04:15;14.60;83.20
36710;DHT22;22694;51.040;3.684;2023-02-13T12:09:25;14.70;83.10
36710;DHT22;22694;51.040;3.684;2023-02-13T12:11:53;14.70;83.00
36710;DHT22;22694;51.040;3.684;2023-02-13T12:14:32;14.70;83.00
36710;DHT22;22694;51.040;3.684;2023-02-13T12:17:15;14.70;82.90
36710;DHT22;22694;51.040;3.684;2023-02-13T12:19:44;14.70;82.90
36710;DHT22;22694;51.040;3.684;2023-02-13T12:22:31;14.80;82.90
36710;DHT22;22694;51.040;3.684;2023-02-13T12:33:25;14.90;82.70
36710;DHT22;22694;51.040;3.684;2023-02-13T12:46:47;15.00;82.80
36710;DHT22;22694;51.040;3.684;2023-02-13T13:08:21;15.20;82.80
36710;DHT22;22694;51.040;3.684;2023-02-13T13:10:55;15.20;82.80
36710;DHT22;22694;51.040;3.684;2023-02-13T13:16:15;15.30;82.90
36710;DHT22;22694;51.040;3.684;2023-02-13T13:21:50;15.30;82.90
36710;DHT22;22694;51.040;3.684;2023-02-13T13:27:20;15.40;82.70
36710;DHT22;22694;51.040;3.684;2023-02-13T13:30:19;15.40;82.70
36710;DHT22;22694;51.040;3.684;2023-02-13T13:32:44;15.40;82.70
36710;DHT22;22694;51.040;3.684;2023-02-13T13:35:14;15.50;82.80
36710;DHT22;22694;51.040;3.684;2023-02-13T13:37:56;15.60;90.30
36710;DHT22;22694;51.040;3.684;2023-02-13T13:45:47;16.20;90.00
36710;DHT22;22694;51.040;3.684;2023-02-13T13:51:01;16.40;89.90
36710;DHT22;22694;51.040;3.684;2023-02-13T13:53:27;16.60;89.70
36710;DHT22;22694;51.040;3.684;2023-02-13T13:58:41;16.80;87.00
36710;DHT22;22694;51.040;3.684;2023-02-13T14:03:47;17.10;85.90
36710;DHT22;22694;51.040;3.684;2023-02-13T14:06:15;17.30;85.10
36710;DHT22;22694;51.040;3.684;2023-02-13T14:11:31;17.10;84.10
36710;DHT22;22694;51.040;3.684;2023-02-13T14:13:57;16.90;84.00
36710;DHT22;22694;51.040;3.684;2023-02-13T14:16:42;16.80;84.10
36710;DHT22;22694;51.040;3.684;2023-02-13T14:19:41;16.70;84.10
36710;DHT22;22694;51.040;3.684;2023-02-13T14:22:30;16.50;84.20
36710;DHT22;22694;51.040;3.684;2023-02-13T14:24:58;16.50;84.20
36710;DHT22;22694;51.040;3.684;2023-02-13T14:27:31;16.40;84.20
36710;DHT22;22694;51.040;3.684;2023-02-13T14:29:59;16.30;84.20
36710;DHT22;22694;51.040;3.684;2023-02-13T14:32:31;16.30;84.20
36710;DHT22;22694;51.040;3.684;2023-02-13T14:37:48;16.30;84.10
36710;DHT22;22694;51.040;3.684;2023-02-13T14:42:45;16.20;83.90
36710;DHT22;22694;51.040;3.684;2023-02-13T14:45:17;16.20;84.00
36710;DHT22;22694;51.040;3.684;2023-02-13T14:47:46;16.20;83.90
36710;DHT22;22694;51.040;3.684;2023-02-13T14:50:25;16.10;83.70
36710;DHT22;22694;51.040;3.684;2023-02-13T14:52:53;16.10;83.70
36710;DHT22;22694;51.040;3.684;2023-02-13T14:55:39;16.10;83.60
36710;DHT22;22694;51.040;3.684;2023-02-13T14:58:06;16.10;83.40
36710;DHT22;22694;51.040;3.684;2023-02-13T15:01:07;16.10;83.40
36710;DHT22;22694;51.040;3.684;2023-02-13T15:03:46;16.20;84.90
36710;DHT22;22694;51.040;3.684;2023-02-13T15:06:28;16.40;84.70
36710;DHT22;22694;51.040;3.684;2023-02-13T15:08:56;16.60;82.90
36710;DHT22;22694;51.040;3.684;2023-02-13T15:11:35;16.50;78.00
36710;DHT22;22694;51.040;3.684;2023-02-13T15:14:35;16.30;75.00
36710;DHT22;22694;51.040;3.684;2023-02-13T15:17:33;16.20;74.40
36710;DHT22;22694;51.040;3.684;2023-02-13T15:22:34;15.80;74.50
36710;DHT22;22694;51.040;3.684;2023-02-13T15:25:01;15.70;74.60
36710;DHT22;22694;51.040;3.684;2023-02-13T15:27:30;15.60;74.40
36710;DHT22;22694;51.040;3.684;2023-02-13T15:30:03;15.50;74.60
36710;DHT22;22694;51.040;3.684;2023-02-13T15:32:33;15.50;74.90
36710;DHT22;22694;51.040;3.684;2023-02-13T15:34:59;15.40;74.50
36710;DHT22;22694;51.040;3.684;2023-02-13T15:37:29;15.30;74.70
36710;DHT22;22694;51.040;3.684;2023-02-13T15:40:08;15.20;74.80
36710;DHT22;22694;51.040;3.684;2023-02-13T15:42:38;15.20;74.90
36710;DHT22;22694;51.040;3.684;2023-02-13T15:45:04;15.10;75.10
36710;DHT22;22694;51.040;3.684;2023-02-13T15:47:31;15.00;74.80
36710;DHT22;22694;51.040;3.684;2023-02-13T15:49:58;14.90;75.10
36710;DHT22;22694;51.040;3.684;2023-02-13T15:52:32;14.90;75.10
36710;DHT22;22694;51.040;3.684;2023-02-13T15:54:59;14.90;75.20
36710;DHT22;22694;51.040;3.684;2023-02-13T15:57:25;14.80;75.40
36710;DHT22;22694;51.040;3.684;2023-02-13T15:59:53;14.70;75.40
36710;DHT22;22694;51.040;3.684;2023-02-13T16:02:38;14.70;75.60
36710;DHT22;22694;51.040;3.684;2023-02-13T16:05:05;14.60;75.60
36710;DHT22;22694;51.040;3.684;2023-02-13T16:07:50;14.50;75.70
36710;DHT22;22694;51.040;3.684;2023-02-13T16:10:31;14.50;75.80
36710;DHT22;22694;51.040;3.684;2023-02-13T16:12:58;14.50;76.00
36710;DHT22;22694;51.040;3.684;2023-02-13T16:15:28;14.50;79.60
36710;DHT22;22694;51.040;3.684;2023-02-13T16:17:55;14.60;79.20
36710;DHT22;22694;51.040;3.684;2023-02-13T16:20:29;14.50;78.40
36710;DHT22;22694;51.040;3.684;2023-02-13T16:23:05;14.50;78.40
36710;DHT22;22694;51.040;3.684;2023-02-13T16:25:35;14.40;78.20
36710;DHT22;22694;51.040;3.684;2023-02-13T16:28:22;14.40;78.50
36710;DHT22;22694;51.040;3.684;2023-02-13T16:35:56;14.30;78.60
36710;DHT22;22694;51.040;3.684;2023-02-13T16:38:37;14.30;78.70
36710;DHT22;22694;51.040;3.684;2023-02-13T16:41:27;14.20;78.80
36710;DHT22;22694;51.040;3.684;2023-02-13T16:44:00;14.20;78.90
36710;DHT22;22694;51.040;3.684;2023-02-13T16:46:36;14.20;79.00
36710;DHT22;22694;51.040;3.684;2023-02-13T16:54:14;14.10;79.30
36710;DHT22;22694;51.040;3.684;2023-02-13T16:56:47;14.00;79.40
36710;DHT22;22694;51.040;3.684;2023-02-13T17:01:45;13.90;79.50
36710;DHT22;22694;51.040;3.684;2023-02-13T17:04:20;13.90;79.70
36710;DHT22;22694;51.040;3.684;2023-02-13T17:06:46;13.90;79.70
36710;DHT22;22694;51.040;3.684;2023-02-13T17:09:12;13.90;79.80
36710;DHT22;22694;51.040;3.684;2023-02-13T17:11:38;13.90;79.90
36710;DHT22;22694;51.040;3.684;2023-02-13T17:14:04;13.80;79.90
36710;DHT22;22694;51.040;3.684;2023-02-13T17:16:29;13.80;80.00
36710;DHT22;22694;51.040;3.684;2023-02-13T17:18:55;13.80;80.10
36710;DHT22;22694;51.040;3.684;2023-02-13T17:21:21;13.70;80.30
36710;DHT22;22694;51.040;3.684;2023-02-13T17:23:46;13.70;80.40
36710;DHT22;22694;51.040;3.684;2023-02-13T17:26:12;13.70;80.50
36710;DHT22;22694;51.040;3.684;2023-02-13T17:28:38;13.60;80.50
36710;DHT22;22694;51.040;3.684;2023-02-13T17:31:09;13.60;80.70
36710;DHT22;22694;51.040;3.684;2023-02-13T17:33:35;13.60;80.80
36710;DHT22;22694;51.040;3.684;2023-02-13T17:36:04;13.50;80.90
36710;DHT22;22694;51.040;3.684;2023-02-13T17:38:30;13.50;80.90
36710;DHT22;22694;51.040;3.684;2023-02-13T17:40:56;13.50;81.00
36710;DHT22;22694;51.040;3.684;2023-02-13T17:43:21;13.50;81.10
36710;DHT22;22694;51.040;3.684;2023-02-13T17:45:48;13.40;81.10
36710;DHT22;22694;51.040;3.684;2023-02-13T17:48:14;13.40;81.20
36710;DHT22;22694;51.040;3.684;2023-02-13T17:50:39;13.40;81.30
36710;DHT22;22694;51.040;3.684;2023-02-13T17:53:35;13.30;81.30
36710;DHT22;22694;51.040;3.684;2023-02-13T17:56:00;13.30;81.40
36710;DHT22;22694;51.040;3.684;2023-02-13T17:58:26;13.30;81.50
36710;DHT22;22694;51.040;3.684;2023-02-13T18:00:52;13.20;81.50
36710;DHT22;22694;51.040;3.684;2023-02-13T18:03:18;13.20;81.50
36710;DHT22;22694;51.040;3.684;2023-02-13T18:05:46;13.20;81.50
36710;DHT22;22694;51.040;3.684;2023-02-13T18:08:12;13.20;81.70
36710;DHT22;22694;51.040;3.684;2023-02-13T18:10:38;13.10;81.60
36710;DHT22;22694;51.040;3.684;2023-02-13T18:13:04;13.10;81.60
36710;DHT22;22694;51.040;3.684;2023-02-13T18:15:31;13.10;81.70
36710;DHT22;22694;51.040;3.684;2023-02-13T18:17:58;13.10;81.80
36710;DHT22;22694;51.040;3.684;2023-02-13T18:20:23;13.10;81.70
36710;DHT22;22694;51.040;3.684;2023-02-13T18:22:49;13.00;81.70
36710;DHT22;22694;51.040;3.684;2023-02-13T18:25:15;13.00;81.70
36710;DHT22;22694;51.040;3.684;2023-02-13T18:27:41;13.00;81.60
36710;DHT22;22694;51.040;3.684;2023-02-13T18:30:08;13.30;91.00
36710;DHT22;22694;51.040;3.684;2023-02-13T18:32:34;13.60;89.20